sensor_id;sensor_type;location;lat;lon;timestamp;P1;durP1;ratioP1;P2;durP2;ratioP2
72939;SDS011;61094;51.154;13.570;2022-08-14T00:00:42;12.95;;;7.03;;
72939;SDS011;61094;51.154;13.570;2022-08-14T00:03:16;13.05;;;6.95;;
72939;SDS011;61094;51.154;13.570;2022-08-14T00:05:44;11.68;;;6.97;;
72939;SDS011;61094;51.154;13.570;2022-08-14T00:08:12;12.10;;;6.82;;
72939;SDS011;61094;51.154;13.570;2022-08-14T00:10:39;12.18;;;6.43;;
72939;SDS011;61094;51.154;13.570;2022-08-14T00:13:05;13.30;;;7.40;;
72939;SDS011;61094;51.154;13.570;2022-08-14T00:15:35;14.20;;;7.18;;
72939;SDS011;61094;51.154;13.570;2022-08-14T00:18:03;12.40;;;6.72;;
72939;SDS011;61094;51.154;13.570;2022-08-14T00:20:33;12.07;;;6.88;;
72939;SDS011;61094;51.154;13.570;2022-08-14T00:23:02;11.85;;;6.40;;
72939;SDS011;61094;51.154;13.570;2022-08-14T00:25:32;18.13;;;7.82;;
72939;SDS011;61094;51.154;13.570;2022-08-14T00:27:59;11.73;;;6.72;;
72939;SDS011;61094;51.154;13.570;2022-08-14T00:30:26;12.48;;;7.07;;
72939;SDS011;61094;51.154;13.570;2022-08-14T00:32:53;13.85;;;6.93;;
72939;SDS011;61094;51.154;13.570;2022-08-14T00:35:20;11.93;;;6.63;;
72939;SDS011;61094;51.154;13.570;2022-08-14T00:37:47;11.27;;;7.07;;
72939;SDS011;61094;51.154;13.570;2022-08-14T00:40:15;14.32;;;7.50;;
72939;SDS011;61094;51.154;13.570;2022-08-14T00:42:45;11.05;;;6.65;;
72939;SDS011;61094;51.154;13.570;2022-08-14T00:45:13;14.52;;;7.13;;
72939;SDS011;61094;51.154;13.570;2022-08-14T00:47:41;11.48;;;7.10;;
72939;SDS011;61094;51.154;13.570;2022-08-14T00:50:10;12.15;;;6.82;;
72939;SDS011;61094;51.154;13.570;2022-08-14T00:55:06;12.98;;;6.43;;
72939;SDS011;61094;51.154;13.570;2022-08-14T00:57:34;13.07;;;6.93;;
72939;SDS011;61094;51.154;13.570;2022-08-14T01:00:04;10.82;;;6.13;;
72939;SDS011;61094;51.154;13.570;2022-08-14T01:02:35;11.45;;;6.75;;
72939;SDS011;61094;51.154;13.570;2022-08-14T01:05:02;13.68;;;7.13;;
72939;SDS011;61094;51.154;13.570;2022-08-14T01:07:32;12.35;;;7.28;;
72939;SDS011;61094;51.154;13.570;2022-08-14T01:09:59;13.32;;;6.72;;
72939;SDS011;61094;51.154;13.570;2022-08-14T01:12:29;14.63;;;7.13;;
72939;SDS011;61094;51.154;13.570;2022-08-14T01:14:57;12.20;;;6.85;;
72939;SDS011;61094;51.154;13.570;2022-08-14T01:17:27;13.55;;;7.15;;
72939;SDS011;61094;51.154;13.570;2022-08-14T01:20:10;12.32;;;6.60;;
72939;SDS011;61094;51.154;13.570;2022-08-14T01:22:56;12.48;;;6.65;;
72939;SDS011;61094;51.154;13.570;2022-08-14T01:25:22;12.00;;;6.90;;
72939;SDS011;61094;51.154;13.570;2022-08-14T01:27:49;12.07;;;6.60;;
72939;SDS011;61094;51.154;13.570;2022-08-14T01:30:19;13.10;;;6.88;;
72939;SDS011;61094;51.154;13.570;2022-08-14T01:32:48;13.68;;;6.40;;
72939;SDS011;61094;51.154;13.570;2022-08-14T01:35:15;12.32;;;7.13;;
72939;SDS011;61094;51.154;13.570;2022-08-14T01:37:42;14.27;;;7.63;;
72939;SDS011;61094;51.154;13.570;2022-08-14T01:40:11;13.75;;;6.55;;
72939;SDS011;61094;51.154;13.570;2022-08-14T01:42:40;13.80;;;7.10;;
72939;SDS011;61094;51.154;13.570;2022-08-14T01:45:07;13.68;;;7.28;;
72939;SDS011;61094;51.154;13.570;2022-08-14T01:47:36;13.55;;;6.93;;
72939;SDS011;61094;51.154;13.570;2022-08-14T01:50:04;14.25;;;7.28;;
72939;SDS011;61094;51.154;13.570;2022-08-14T01:52:31;13.13;;;6.70;;
72939;SDS011;61094;51.154;13.570;2022-08-14T01:55:00;11.65;;;6.35;;
72939;SDS011;61094;51.154;13.570;2022-08-14T01:57:28;12.93;;;7.40;;
72939;SDS011;61094;51.154;13.570;2022-08-14T01:59:55;15.45;;;6.53;;
72939;SDS011;61094;51.154;13.570;2022-08-14T02:02:22;11.88;;;7.22;;
72939;SDS011;61094;51.154;13.570;2022-08-14T02:04:48;12.85;;;6.63;;
72939;SDS011;61094;51.154;13.570;2022-08-14T02:07:15;12.60;;;6.85;;
72939;SDS011;61094;51.154;13.570;2022-08-14T02:09:42;15.50;;;7.55;;
72939;SDS011;61094;51.154;13.570;2022-08-14T02:12:08;12.90;;;7.72;;
72939;SDS011;61094;51.154;13.570;2022-08-14T02:14:36;12.32;;;7.38;;
72939;SDS011;61094;51.154;13.570;2022-08-14T02:17:04;13.73;;;7.55;;
72939;SDS011;61094;51.154;13.570;2022-08-14T02:19:33;15.10;;;7.10;;
72939;SDS011;61094;51.154;13.570;2022-08-14T02:22:00;11.48;;;6.28;;
72939;SDS011;61094;51.154;13.570;2022-08-14T02:24:28;13.88;;;6.97;;
72939;SDS011;61094;51.154;13.570;2022-08-14T02:26:56;11.15;;;6.70;;
72939;SDS011;61094;51.154;13.570;2022-08-14T02:29:24;12.70;;;7.55;;
72939;SDS011;61094;51.154;13.570;2022-08-14T02:31:54;15.23;;;7.30;;
72939;SDS011;61094;51.154;13.570;2022-08-14T02:34:24;12.93;;;7.25;;
72939;SDS011;61094;51.154;13.570;2022-08-14T02:36:55;12.38;;;6.90;;
72939;SDS011;61094;51.154;13.570;2022-08-14T02:39:24;11.40;;;6.78;;
72939;SDS011;61094;51.154;13.570;2022-08-14T02:41:51;12.57;;;6.53;;
72939;SDS011;61094;51.154;13.570;2022-08-14T02:44:18;14.00;;;7.28;;
72939;SDS011;61094;51.154;13.570;2022-08-14T02:46:49;14.50;;;7.43;;
72939;SDS011;61094;51.154;13.570;2022-08-14T02:49:19;16.30;;;7.93;;
72939;SDS011;61094;51.154;13.570;2022-08-14T02:51:53;14.40;;;7.40;;
72939;SDS011;61094;51.154;13.570;2022-08-14T02:54:21;15.52;;;6.97;;
72939;SDS011;61094;51.154;13.570;2022-08-14T02:56:49;12.75;;;7.38;;
72939;SDS011;61094;51.154;13.570;2022-08-14T02:59:18;13.50;;;7.50;;
72939;SDS011;61094;51.154;13.570;2022-08-14T03:01:45;12.23;;;6.55;;
72939;SDS011;61094;51.154;13.570;2022-08-14T03:04:12;13.05;;;6.95;;
72939;SDS011;61094;51.154;13.570;2022-08-14T03:06:41;12.45;;;7.43;;
72939;SDS011;61094;51.154;13.570;2022-08-14T03:09:08;13.68;;;7.47;;
72939;SDS011;61094;51.154;13.570;2022-08-14T03:11:36;12.82;;;6.75;;
72939;SDS011;61094;51.154;13.570;2022-08-14T03:14:03;13.02;;;6.57;;
72939;SDS011;61094;51.154;13.570;2022-08-14T03:16:30;13.52;;;7.63;;
72939;SDS011;61094;51.154;13.570;2022-08-14T03:18:59;11.85;;;6.85;;
72939;SDS011;61094;51.154;13.570;2022-08-14T03:21:26;13.35;;;7.10;;
72939;SDS011;61094;51.154;13.570;2022-08-14T03:23:55;13.20;;;7.50;;
72939;SDS011;61094;51.154;13.570;2022-08-14T03:26:30;15.35;;;7.65;;
72939;SDS011;61094;51.154;13.570;2022-08-14T03:28:57;13.93;;;7.35;;
72939;SDS011;61094;51.154;13.570;2022-08-14T03:31:25;12.43;;;7.15;;
72939;SDS011;61094;51.154;13.570;2022-08-14T03:33:51;13.48;;;7.30;;
72939;SDS011;61094;51.154;13.570;2022-08-14T03:36:18;15.70;;;7.28;;
72939;SDS011;61094;51.154;13.570;2022-08-14T03:38:46;13.10;;;7.15;;
72939;SDS011;61094;51.154;13.570;2022-08-14T03:41:19;12.55;;;7.15;;
72939;SDS011;61094;51.154;13.570;2022-08-14T03:43:48;13.05;;;6.45;;
72939;SDS011;61094;51.154;13.570;2022-08-14T03:46:16;13.05;;;7.40;;
72939;SDS011;61094;51.154;13.570;2022-08-14T03:48:43;14.23;;;7.55;;
72939;SDS011;61094;51.154;13.570;2022-08-14T03:51:11;13.68;;;7.75;;
72939;SDS011;61094;51.154;13.570;2022-08-14T03:53:39;12.75;;;6.53;;
72939;SDS011;61094;51.154;13.570;2022-08-14T03:56:12;13.55;;;7.88;;
72939;SDS011;61094;51.154;13.570;2022-08-14T03:58:49;12.85;;;7.22;;
72939;SDS011;61094;51.154;13.570;2022-08-14T04:01:18;13.65;;;6.85;;
72939;SDS011;61094;51.154;13.570;2022-08-14T04:03:47;13.25;;;6.70;;
72939;SDS011;61094;51.154;13.570;2022-08-14T04:06:15;12.93;;;6.57;;
72939;SDS011;61094;51.154;13.570;2022-08-14T04:11:11;11.63;;;6.30;;
72939;SDS011;61094;51.154;13.570;2022-08-14T04:13:39;14.07;;;7.30;;
72939;SDS011;61094;51.154;13.570;2022-08-14T04:16:09;15.02;;;7.35;;
72939;SDS011;61094;51.154;13.570;2022-08-14T04:18:39;12.38;;;6.80;;
72939;SDS011;61094;51.154;13.570;2022-08-14T04:21:09;14.05;;;7.63;;
72939;SDS011;61094;51.154;13.570;2022-08-14T04:23:36;13.57;;;7.00;;
72939;SDS011;61094;51.154;13.570;2022-08-14T04:26:04;14.07;;;6.68;;
72939;SDS011;61094;51.154;13.570;2022-08-14T04:28:32;13.00;;;6.82;;
72939;SDS011;61094;51.154;13.570;2022-08-14T04:31:01;15.10;;;7.43;;
72939;SDS011;61094;51.154;13.570;2022-08-14T04:33:29;13.48;;;7.20;;
72939;SDS011;61094;51.154;13.570;2022-08-14T04:35:56;14.15;;;7.47;;
72939;SDS011;61094;51.154;13.570;2022-08-14T04:38:22;13.07;;;7.10;;
72939;SDS011;61094;51.154;13.570;2022-08-14T04:41:07;13.32;;;7.03;;
72939;SDS011;61094;51.154;13.570;2022-08-14T04:43:51;14.27;;;7.47;;
72939;SDS011;61094;51.154;13.570;2022-08-14T04:46:20;12.80;;;6.97;;
72939;SDS011;61094;51.154;13.570;2022-08-14T04:48:49;16.38;;;9.02;;
72939;SDS011;61094;51.154;13.570;2022-08-14T04:51:16;13.63;;;7.80;;
72939;SDS011;61094;51.154;13.570;2022-08-14T04:56:12;16.73;;;8.40;;
72939;SDS011;61094;51.154;13.570;2022-08-14T04:58:40;14.88;;;7.95;;
72939;SDS011;61094;51.154;13.570;2022-08-14T05:01:08;14.18;;;8.52;;
72939;SDS011;61094;51.154;13.570;2022-08-14T05:03:37;15.40;;;8.98;;
72939;SDS011;61094;51.154;13.570;2022-08-14T05:06:05;16.08;;;8.73;;
72939;SDS011;61094;51.154;13.570;2022-08-14T05:08:35;16.25;;;8.57;;
72939;SDS011;61094;51.154;13.570;2022-08-14T05:11:03;14.80;;;8.55;;
72939;SDS011;61094;51.154;13.570;2022-08-14T05:13:32;16.75;;;8.77;;
72939;SDS011;61094;51.154;13.570;2022-08-14T05:16:01;15.52;;;8.27;;
72939;SDS011;61094;51.154;13.570;2022-08-14T05:18:29;15.82;;;8.60;;
72939;SDS011;61094;51.154;13.570;2022-08-14T05:20:59;17.15;;;8.68;;
72939;SDS011;61094;51.154;13.570;2022-08-14T05:23:28;16.98;;;8.73;;
72939;SDS011;61094;51.154;13.570;2022-08-14T05:25:57;16.42;;;9.95;;
72939;SDS011;61094;51.154;13.570;2022-08-14T05:28:26;15.93;;;9.25;;
72939;SDS011;61094;51.154;13.570;2022-08-14T05:30:54;17.70;;;10.10;;
72939;SDS011;61094;51.154;13.570;2022-08-14T05:33:23;16.17;;;9.45;;
72939;SDS011;61094;51.154;13.570;2022-08-14T05:35:52;17.20;;;10.02;;
72939;SDS011;61094;51.154;13.570;2022-08-14T05:38:25;19.33;;;10.98;;
72939;SDS011;61094;51.154;13.570;2022-08-14T05:40:55;18.42;;;10.75;;
72939;SDS011;61094;51.154;13.570;2022-08-14T05:43:21;19.55;;;10.48;;
72939;SDS011;61094;51.154;13.570;2022-08-14T05:45:48;18.52;;;11.07;;
72939;SDS011;61094;51.154;13.570;2022-08-14T05:48:15;18.20;;;9.73;;
72939;SDS011;61094;51.154;13.570;2022-08-14T05:50:41;19.38;;;10.55;;
72939;SDS011;61094;51.154;13.570;2022-08-14T05:53:08;17.60;;;10.35;;
72939;SDS011;61094;51.154;13.570;2022-08-14T05:55:36;18.58;;;10.55;;
72939;SDS011;61094;51.154;13.570;2022-08-14T05:58:05;19.05;;;10.18;;
72939;SDS011;61094;51.154;13.570;2022-08-14T06:00:33;28.40;;;16.38;;
72939;SDS011;61094;51.154;13.570;2022-08-14T06:03:02;32.92;;;20.17;;
72939;SDS011;61094;51.154;13.570;2022-08-14T06:05:29;86.75;;;43.58;;
72939;SDS011;61094;51.154;13.570;2022-08-14T06:07:57;73.10;;;37.85;;
72939;SDS011;61094;51.154;13.570;2022-08-14T06:10:25;53.00;;;29.77;;
72939;SDS011;61094;51.154;13.570;2022-08-14T06:12:53;23.58;;;12.48;;
72939;SDS011;61094;51.154;13.570;2022-08-14T06:15:21;20.45;;;11.73;;
72939;SDS011;61094;51.154;13.570;2022-08-14T06:17:48;21.92;;;10.85;;
72939;SDS011;61094;51.154;13.570;2022-08-14T06:20:16;16.70;;;9.88;;
72939;SDS011;61094;51.154;13.570;2022-08-14T06:22:44;17.45;;;9.48;;
72939;SDS011;61094;51.154;13.570;2022-08-14T06:25:13;16.77;;;9.98;;
72939;SDS011;61094;51.154;13.570;2022-08-14T06:30:09;15.18;;;8.40;;
72939;SDS011;61094;51.154;13.570;2022-08-14T06:32:38;17.60;;;8.73;;
72939;SDS011;61094;51.154;13.570;2022-08-14T06:35:06;17.02;;;9.10;;
72939;SDS011;61094;51.154;13.570;2022-08-14T06:37:39;16.63;;;9.02;;
72939;SDS011;61094;51.154;13.570;2022-08-14T06:40:07;18.05;;;10.07;;
72939;SDS011;61094;51.154;13.570;2022-08-14T06:42:39;16.67;;;9.13;;
72939;SDS011;61094;51.154;13.570;2022-08-14T06:45:07;14.25;;;8.40;;
72939;SDS011;61094;51.154;13.570;2022-08-14T06:47:37;15.77;;;8.38;;
72939;SDS011;61094;51.154;13.570;2022-08-14T06:50:07;15.73;;;9.50;;
72939;SDS011;61094;51.154;13.570;2022-08-14T06:52:36;16.60;;;8.27;;
72939;SDS011;61094;51.154;13.570;2022-08-14T06:55:06;16.15;;;9.00;;
72939;SDS011;61094;51.154;13.570;2022-08-14T06:57:35;18.50;;;9.27;;
72939;SDS011;61094;51.154;13.570;2022-08-14T07:00:04;14.80;;;8.80;;
72939;SDS011;61094;51.154;13.570;2022-08-14T07:02:32;15.80;;;8.15;;
72939;SDS011;61094;51.154;13.570;2022-08-14T07:05:18;14.95;;;8.80;;
72939;SDS011;61094;51.154;13.570;2022-08-14T07:08:03;15.80;;;8.73;;
72939;SDS011;61094;51.154;13.570;2022-08-14T07:10:30;14.48;;;8.30;;
72939;SDS011;61094;51.154;13.570;2022-08-14T07:12:57;16.13;;;9.38;;
72939;SDS011;61094;51.154;13.570;2022-08-14T07:15:25;14.32;;;8.73;;
72939;SDS011;61094;51.154;13.570;2022-08-14T07:17:52;14.20;;;8.43;;
72939;SDS011;61094;51.154;13.570;2022-08-14T07:20:20;15.15;;;8.63;;
72939;SDS011;61094;51.154;13.570;2022-08-14T07:22:47;14.32;;;7.85;;
72939;SDS011;61094;51.154;13.570;2022-08-14T07:25:15;13.45;;;7.60;;
72939;SDS011;61094;51.154;13.570;2022-08-14T07:27:43;12.90;;;7.80;;
72939;SDS011;61094;51.154;13.570;2022-08-14T07:30:09;14.35;;;8.93;;
72939;SDS011;61094;51.154;13.570;2022-08-14T07:32:42;12.43;;;7.63;;
72939;SDS011;61094;51.154;13.570;2022-08-14T07:35:16;13.50;;;7.38;;
72939;SDS011;61094;51.154;13.570;2022-08-14T07:37:51;15.32;;;6.90;;
72939;SDS011;61094;51.154;13.570;2022-08-14T07:40:17;11.60;;;7.57;;
72939;SDS011;61094;51.154;13.570;2022-08-14T07:42:44;13.60;;;6.53;;
72939;SDS011;61094;51.154;13.570;2022-08-14T07:45:11;10.57;;;6.93;;
72939;SDS011;61094;51.154;13.570;2022-08-14T07:50:38;12.48;;;7.18;;
72939;SDS011;61094;51.154;13.570;2022-08-14T07:53:07;14.00;;;7.30;;
72939;SDS011;61094;51.154;13.570;2022-08-14T07:55:34;11.25;;;7.22;;
72939;SDS011;61094;51.154;13.570;2022-08-14T07:58:01;11.98;;;7.38;;
72939;SDS011;61094;51.154;13.570;2022-08-14T08:00:28;15.32;;;7.20;;
72939;SDS011;61094;51.154;13.570;2022-08-14T08:02:56;11.18;;;7.00;;
72939;SDS011;61094;51.154;13.570;2022-08-14T08:05:23;13.65;;;7.03;;
72939;SDS011;61094;51.154;13.570;2022-08-14T08:07:51;14.52;;;9.10;;
72939;SDS011;61094;51.154;13.570;2022-08-14T08:10:21;11.35;;;6.85;;
72939;SDS011;61094;51.154;13.570;2022-08-14T08:12:59;10.75;;;6.88;;
72939;SDS011;61094;51.154;13.570;2022-08-14T08:15:29;12.73;;;7.40;;
72939;SDS011;61094;51.154;13.570;2022-08-14T08:20:24;12.07;;;5.30;;
72939;SDS011;61094;51.154;13.570;2022-08-14T08:22:58;9.88;;;5.80;;
72939;SDS011;61094;51.154;13.570;2022-08-14T08:25:28;11.77;;;6.75;;
72939;SDS011;61094;51.154;13.570;2022-08-14T08:27:57;9.48;;;6.10;;
72939;SDS011;61094;51.154;13.570;2022-08-14T08:30:25;10.57;;;5.90;;
72939;SDS011;61094;51.154;13.570;2022-08-14T08:32:53;8.73;;;5.80;;
72939;SDS011;61094;51.154;13.570;2022-08-14T08:35:21;9.60;;;5.80;;
72939;SDS011;61094;51.154;13.570;2022-08-14T08:37:49;9.48;;;6.28;;
72939;SDS011;61094;51.154;13.570;2022-08-14T08:40:35;9.05;;;5.82;;
72939;SDS011;61094;51.154;13.570;2022-08-14T08:43:43;9.70;;;6.22;;
72939;SDS011;61094;51.154;13.570;2022-08-14T08:46:14;11.25;;;6.32;;
72939;SDS011;61094;51.154;13.570;2022-08-14T08:54:10;9.40;;;5.35;;
72939;SDS011;61094;51.154;13.570;2022-08-14T08:56:51;10.85;;;6.15;;
72939;SDS011;61094;51.154;13.570;2022-08-14T08:59:29;9.27;;;5.45;;
72939;SDS011;61094;51.154;13.570;2022-08-14T09:01:57;8.25;;;5.53;;
72939;SDS011;61094;51.154;13.570;2022-08-14T09:04:43;9.65;;;5.28;;
72939;SDS011;61094;51.154;13.570;2022-08-14T09:07:26;11.43;;;6.00;;
72939;SDS011;61094;51.154;13.570;2022-08-14T09:10:51;14.05;;;8.80;;
72939;SDS011;61094;51.154;13.570;2022-08-14T09:16:52;8.80;;;4.85;;
72939;SDS011;61094;51.154;13.570;2022-08-14T09:22:46;10.57;;;4.97;;
72939;SDS011;61094;51.154;13.570;2022-08-14T09:25:15;8.45;;;4.90;;
72939;SDS011;61094;51.154;13.570;2022-08-14T09:27:48;8.50;;;4.60;;
72939;SDS011;61094;51.154;13.570;2022-08-14T09:33:33;7.93;;;5.53;;
72939;SDS011;61094;51.154;13.570;2022-08-14T09:37:42;8.95;;;5.50;;
72939;SDS011;61094;51.154;13.570;2022-08-14T09:44:02;11.52;;;7.70;;
72939;SDS011;61094;51.154;13.570;2022-08-14T09:47:09;10.35;;;5.30;;
72939;SDS011;61094;51.154;13.570;2022-08-14T09:49:44;9.63;;;5.20;;
72939;SDS011;61094;51.154;13.570;2022-08-14T09:52:12;7.13;;;4.53;;
72939;SDS011;61094;51.154;13.570;2022-08-14T09:54:41;8.35;;;4.97;;
72939;SDS011;61094;51.154;13.570;2022-08-14T09:57:22;8.57;;;4.57;;
72939;SDS011;61094;51.154;13.570;2022-08-14T09:59:54;6.57;;;3.92;;
72939;SDS011;61094;51.154;13.570;2022-08-14T10:02:49;7.95;;;4.72;;
72939;SDS011;61094;51.154;13.570;2022-08-14T10:05:32;9.70;;;5.32;;
72939;SDS011;61094;51.154;13.570;2022-08-14T10:11:11;8.57;;;4.95;;
72939;SDS011;61094;51.154;13.570;2022-08-14T10:13:43;8.60;;;4.68;;
72939;SDS011;61094;51.154;13.570;2022-08-14T10:16:15;8.35;;;4.85;;
72939;SDS011;61094;51.154;13.570;2022-08-14T10:18:44;7.47;;;4.80;;
72939;SDS011;61094;51.154;13.570;2022-08-14T10:21:15;7.68;;;5.30;;
72939;SDS011;61094;51.154;13.570;2022-08-14T10:23:43;9.40;;;4.20;;
72939;SDS011;61094;51.154;13.570;2022-08-14T10:26:19;9.60;;;4.43;;
72939;SDS011;61094;51.154;13.570;2022-08-14T10:28:50;9.05;;;5.35;;
72939;SDS011;61094;51.154;13.570;2022-08-14T10:31:27;9.63;;;5.40;;
72939;SDS011;61094;51.154;13.570;2022-08-14T10:34:04;11.00;;;5.70;;
72939;SDS011;61094;51.154;13.570;2022-08-14T10:36:33;9.75;;;4.70;;
72939;SDS011;61094;51.154;13.570;2022-08-14T10:39:02;8.30;;;5.38;;
72939;SDS011;61094;51.154;13.570;2022-08-14T10:41:41;7.78;;;5.00;;
72939;SDS011;61094;51.154;13.570;2022-08-14T10:44:10;10.25;;;4.88;;
72939;SDS011;61094;51.154;13.570;2022-08-14T10:46:39;8.32;;;5.30;;
72939;SDS011;61094;51.154;13.570;2022-08-14T10:49:21;8.00;;;5.40;;
72939;SDS011;61094;51.154;13.570;2022-08-14T10:51:54;8.70;;;5.10;;
72939;SDS011;61094;51.154;13.570;2022-08-14T10:54:32;7.03;;;4.40;;
72939;SDS011;61094;51.154;13.570;2022-08-14T10:57:09;10.40;;;5.55;;
72939;SDS011;61094;51.154;13.570;2022-08-14T10:59:55;8.05;;;5.25;;
72939;SDS011;61094;51.154;13.570;2022-08-14T11:02:25;9.07;;;5.50;;
72939;SDS011;61094;51.154;13.570;2022-08-14T11:05:00;8.93;;;5.05;;
72939;SDS011;61094;51.154;13.570;2022-08-14T11:07:30;8.48;;;4.97;;
72939;SDS011;61094;51.154;13.570;2022-08-14T11:10:00;8.18;;;4.90;;
72939;SDS011;61094;51.154;13.570;2022-08-14T11:12:38;9.43;;;5.63;;
72939;SDS011;61094;51.154;13.570;2022-08-14T11:15:10;8.60;;;4.75;;
72939;SDS011;61094;51.154;13.570;2022-08-14T11:17:37;11.68;;;4.00;;
72939;SDS011;61094;51.154;13.570;2022-08-14T11:20:08;7.15;;;4.28;;
72939;SDS011;61094;51.154;13.570;2022-08-14T11:22:45;9.32;;;4.90;;
72939;SDS011;61094;51.154;13.570;2022-08-14T11:25:13;6.47;;;4.53;;
72939;SDS011;61094;51.154;13.570;2022-08-14T11:27:47;8.15;;;4.80;;
72939;SDS011;61094;51.154;13.570;2022-08-14T11:30:17;7.45;;;4.38;;
72939;SDS011;61094;51.154;13.570;2022-08-14T11:32:46;9.52;;;5.10;;
72939;SDS011;61094;51.154;13.570;2022-08-14T11:35:17;7.65;;;4.45;;
72939;SDS011;61094;51.154;13.570;2022-08-14T11:37:51;7.47;;;4.80;;
72939;SDS011;61094;51.154;13.570;2022-08-14T11:40:22;10.07;;;4.90;;
72939;SDS011;61094;51.154;13.570;2022-08-14T11:42:53;6.93;;;4.38;;
72939;SDS011;61094;51.154;13.570;2022-08-14T11:45:23;9.80;;;5.60;;
72939;SDS011;61094;51.154;13.570;2022-08-14T11:47:54;7.53;;;5.00;;
72939;SDS011;61094;51.154;13.570;2022-08-14T11:50:25;10.95;;;5.25;;
72939;SDS011;61094;51.154;13.570;2022-08-14T11:52:57;7.57;;;4.47;;
72939;SDS011;61094;51.154;13.570;2022-08-14T11:55:32;11.35;;;7.50;;
72939;SDS011;61094;51.154;13.570;2022-08-14T11:58:03;14.40;;;5.57;;
72939;SDS011;61094;51.154;13.570;2022-08-14T12:00:49;8.88;;;5.68;;
72939;SDS011;61094;51.154;13.570;2022-08-14T12:03:37;7.47;;;5.00;;
72939;SDS011;61094;51.154;13.570;2022-08-14T12:06:13;8.70;;;4.65;;
72939;SDS011;61094;51.154;13.570;2022-08-14T12:08:44;7.47;;;5.25;;
72939;SDS011;61094;51.154;13.570;2022-08-14T12:11:13;7.68;;;5.35;;
72939;SDS011;61094;51.154;13.570;2022-08-14T12:13:41;7.70;;;4.82;;
72939;SDS011;61094;51.154;13.570;2022-08-14T12:16:10;9.25;;;4.50;;
72939;SDS011;61094;51.154;13.570;2022-08-14T12:18:46;9.50;;;5.47;;
72939;SDS011;61094;51.154;13.570;2022-08-14T12:21:19;9.60;;;4.80;;
72939;SDS011;61094;51.154;13.570;2022-08-14T12:24:01;8.05;;;4.88;;
72939;SDS011;61094;51.154;13.570;2022-08-14T12:26:33;9.63;;;5.47;;
72939;SDS011;61094;51.154;13.570;2022-08-14T12:29:05;7.53;;;4.80;;
72939;SDS011;61094;51.154;13.570;2022-08-14T12:48:06;9.23;;;4.55;;
72939;SDS011;61094;51.154;13.570;2022-08-14T12:54:34;7.32;;;5.25;;
72939;SDS011;61094;51.154;13.570;2022-08-14T13:06:53;8.68;;;4.90;;
72939;SDS011;61094;51.154;13.570;2022-08-14T13:09:36;9.70;;;5.60;;
72939;SDS011;61094;51.154;13.570;2022-08-14T13:15:44;11.93;;;7.13;;
72939;SDS011;61094;51.154;13.570;2022-08-14T13:19:14;13.45;;;7.93;;
72939;SDS011;61094;51.154;13.570;2022-08-14T13:25:08;7.80;;;4.68;;
72939;SDS011;61094;51.154;13.570;2022-08-14T13:28:00;11.77;;;5.00;;
72939;SDS011;61094;51.154;13.570;2022-08-14T13:30:28;9.55;;;5.53;;
72939;SDS011;61094;51.154;13.570;2022-08-14T13:32:58;8.02;;;5.05;;
72939;SDS011;61094;51.154;13.570;2022-08-14T13:35:29;12.45;;;4.93;;
72939;SDS011;61094;51.154;13.570;2022-08-14T13:37:56;8.70;;;4.85;;
72939;SDS011;61094;51.154;13.570;2022-08-14T13:40:23;10.15;;;5.22;;
72939;SDS011;61094;51.154;13.570;2022-08-14T13:42:51;10.85;;;4.95;;
72939;SDS011;61094;51.154;13.570;2022-08-14T13:45:19;9.18;;;6.18;;
72939;SDS011;61094;51.154;13.570;2022-08-14T13:47:51;8.35;;;5.05;;
72939;SDS011;61094;51.154;13.570;2022-08-14T13:50:20;9.27;;;6.20;;
72939;SDS011;61094;51.154;13.570;2022-08-14T13:52:49;8.60;;;4.85;;
72939;SDS011;61094;51.154;13.570;2022-08-14T13:55:21;8.07;;;5.30;;
72939;SDS011;61094;51.154;13.570;2022-08-14T13:57:51;8.25;;;4.95;;
72939;SDS011;61094;51.154;13.570;2022-08-14T14:00:29;8.48;;;4.50;;
72939;SDS011;61094;51.154;13.570;2022-08-14T14:03:04;13.07;;;6.97;;
72939;SDS011;61094;51.154;13.570;2022-08-14T14:05:41;18.10;;;11.45;;
72939;SDS011;61094;51.154;13.570;2022-08-14T14:08:09;9.50;;;4.65;;
72939;SDS011;61094;51.154;13.570;2022-08-14T14:10:38;10.00;;;5.03;;
72939;SDS011;61094;51.154;13.570;2022-08-14T14:13:07;8.38;;;4.55;;
72939;SDS011;61094;51.154;13.570;2022-08-14T14:15:36;8.93;;;5.13;;
72939;SDS011;61094;51.154;13.570;2022-08-14T14:18:09;9.05;;;4.80;;
72939;SDS011;61094;51.154;13.570;2022-08-14T14:20:42;9.57;;;5.00;;
72939;SDS011;61094;51.154;13.570;2022-08-14T14:23:13;7.82;;;4.63;;
72939;SDS011;61094;51.154;13.570;2022-08-14T14:25:41;8.40;;;4.78;;
72939;SDS011;61094;51.154;13.570;2022-08-14T14:28:12;8.52;;;5.13;;
72939;SDS011;61094;51.154;13.570;2022-08-14T14:30:46;8.27;;;4.90;;
72939;SDS011;61094;51.154;13.570;2022-08-14T14:33:13;8.02;;;5.30;;
72939;SDS011;61094;51.154;13.570;2022-08-14T14:35:44;9.02;;;5.95;;
72939;SDS011;61094;51.154;13.570;2022-08-14T14:38:14;7.75;;;4.47;;
72939;SDS011;61094;51.154;13.570;2022-08-14T14:40:48;7.95;;;4.90;;
72939;SDS011;61094;51.154;13.570;2022-08-14T14:43:30;8.77;;;5.47;;
72939;SDS011;61094;51.154;13.570;2022-08-14T14:46:09;11.23;;;5.57;;
72939;SDS011;61094;51.154;13.570;2022-08-14T14:48:39;7.35;;;4.88;;
72939;SDS011;61094;51.154;13.570;2022-08-14T14:51:12;10.32;;;5.10;;
72939;SDS011;61094;51.154;13.570;2022-08-14T14:53:40;8.38;;;4.50;;
72939;SDS011;61094;51.154;13.570;2022-08-14T14:56:08;9.27;;;5.50;;
72939;SDS011;61094;51.154;13.570;2022-08-14T14:58:35;9.05;;;5.00;;
72939;SDS011;61094;51.154;13.570;2022-08-14T15:01:06;9.15;;;4.85;;
72939;SDS011;61094;51.154;13.570;2022-08-14T15:03:40;12.75;;;6.55;;
72939;SDS011;61094;51.154;13.570;2022-08-14T15:06:13;28.63;;;16.65;;
72939;SDS011;61094;51.154;13.570;2022-08-14T15:08:45;9.85;;;6.40;;
72939;SDS011;61094;51.154;13.570;2022-08-14T15:11:14;16.25;;;5.43;;
72939;SDS011;61094;51.154;13.570;2022-08-14T15:13:59;7.90;;;5.32;;
72939;SDS011;61094;51.154;13.570;2022-08-14T15:16:46;7.85;;;4.90;;
72939;SDS011;61094;51.154;13.570;2022-08-14T15:19:44;8.48;;;5.45;;
72939;SDS011;61094;51.154;13.570;2022-08-14T15:22:14;8.38;;;4.75;;
72939;SDS011;61094;51.154;13.570;2022-08-14T15:24:46;20.23;;;12.90;;
72939;SDS011;61094;51.154;13.570;2022-08-14T15:27:31;10.80;;;5.55;;
72939;SDS011;61094;51.154;13.570;2022-08-14T15:30:20;10.63;;;7.32;;
72939;SDS011;61094;51.154;13.570;2022-08-14T15:43:03;8.82;;;4.65;;
72939;SDS011;61094;51.154;13.570;2022-08-14T15:45:54;13.43;;;5.22;;
72939;SDS011;61094;51.154;13.570;2022-08-14T15:52:33;6.75;;;4.40;;
72939;SDS011;61094;51.154;13.570;2022-08-14T15:55:16;8.00;;;4.45;;
72939;SDS011;61094;51.154;13.570;2022-08-14T15:57:55;7.50;;;4.65;;
72939;SDS011;61094;51.154;13.570;2022-08-14T16:00:22;10.13;;;5.63;;
72939;SDS011;61094;51.154;13.570;2022-08-14T16:03:06;9.13;;;4.78;;
72939;SDS011;61094;51.154;13.570;2022-08-14T16:05:35;9.70;;;5.70;;
72939;SDS011;61094;51.154;13.570;2022-08-14T16:08:18;9.75;;;4.75;;
72939;SDS011;61094;51.154;13.570;2022-08-14T16:10:44;9.77;;;4.93;;
72939;SDS011;61094;51.154;13.570;2022-08-14T16:13:17;8.82;;;4.72;;
72939;SDS011;61094;51.154;13.570;2022-08-14T16:15:44;12.68;;;5.07;;
72939;SDS011;61094;51.154;13.570;2022-08-14T16:18:11;11.32;;;5.00;;
72939;SDS011;61094;51.154;13.570;2022-08-14T16:20:43;10.15;;;5.25;;